sensor_id;sensor_type;location;lat;lon;timestamp;pressure;altitude;pressure_sealevel;temperature;humidity
37858;BME280;23695;55.868;37.472;2022-12-07T00:01:21;100380.81;;;24.16;10.95
37858;BME280;23695;55.868;37.472;2022-12-07T00:03:51;100391.44;;;24.17;11.32
37858;BME280;23695;55.868;37.472;2022-12-07T00:06:18;100381.19;;;24.18;11.34
37858;BME280;23695;55.868;37.472;2022-12-07T00:08:47;100366.63;;;24.17;11.36
37858;BME280;23695;55.868;37.472;2022-12-07T00:11:16;100377.25;;;24.19;11.11
37858;BME280;23695;55.868;37.472;2022-12-07T00:13:44;100376.47;;;24.18;11.11
37858;BME280;23695;55.868;37.472;2022-12-07T00:16:16;100384.34;;;24.20;11.37
37858;BME280;23695;55.868;37.472;2022-12-07T00:18:44;100369.75;;;24.19;11.38
37858;BME280;23695;55.868;37.472;2022-12-07T00:21:14;100373.72;;;24.18;11.28
37858;BME280;23695;55.868;37.472;2022-12-07T00:23:42;100375.28;;;24.19;11.24
37858;BME280;23695;55.868;37.472;2022-12-07T00:26:14;100373.72;;;24.18;11.01
37858;BME280;23695;55.868;37.472;2022-12-07T00:28:46;100368.97;;;24.19;11.05
37858;BME280;23695;55.868;37.472;2022-12-07T00:31:14;100379.22;;;24.18;11.57
37858;BME280;23695;55.868;37.472;2022-12-07T00:33:41;100370.16;;;24.18;11.15
37858;BME280;23695;55.868;37.472;2022-12-07T00:36:11;100371.72;;;24.19;11.16
37858;BME280;23695;55.868;37.472;2022-12-07T00:38:39;100371.72;;;24.19;10.82
37858;BME280;23695;55.868;37.472;2022-12-07T00:41:17;100389.50;;;24.21;11.12
37858;BME280;23695;55.868;37.472;2022-12-07T00:43:46;100387.53;;;24.22;11.33
37858;BME280;23695;55.868;37.472;2022-12-07T00:46:14;100383.97;;;24.21;11.31
37858;BME280;23695;55.868;37.472;2022-12-07T00:48:41;100383.97;;;24.21;11.20
37858;BME280;23695;55.868;37.472;2022-12-07T00:51:09;100378.06;;;24.23;11.13
37858;BME280;23695;55.868;37.472;2022-12-07T00:53:38;100383.56;;;24.23;11.46
37858;BME280;23695;55.868;37.472;2022-12-07T00:56:09;100382.38;;;24.24;11.37
37858;BME280;23695;55.868;37.472;2022-12-07T00:58:36;100387.91;;;24.24;11.40
37858;BME280;23695;55.868;37.472;2022-12-07T01:01:04;100382.38;;;24.24;11.29
37858;BME280;23695;55.868;37.472;2022-12-07T01:03:32;100384.38;;;24.23;10.94
37858;BME280;23695;55.868;37.472;2022-12-07T01:05:59;100376.88;;;24.24;11.36
37858;BME280;23695;55.868;37.472;2022-12-07T01:08:27;100378.44;;;24.25;11.28
37858;BME280;23695;55.868;37.472;2022-12-07T01:11:14;100382.78;;;24.26;11.11
37858;BME280;23695;55.868;37.472;2022-12-07T01:13:42;100385.16;;;24.24;11.04
37858;BME280;23695;55.868;37.472;2022-12-07T01:16:11;100382.00;;;24.25;11.38
37858;BME280;23695;55.868;37.472;2022-12-07T01:18:40;100376.47;;;24.25;11.41
37858;BME280;23695;55.868;37.472;2022-12-07T01:21:13;100373.72;;;24.25;11.02
37858;BME280;23695;55.868;37.472;2022-12-07T01:23:40;100378.44;;;24.25;11.20
37858;BME280;23695;55.868;37.472;2022-12-07T01:26:10;100379.22;;;24.25;11.53
37858;BME280;23695;55.868;37.472;2022-12-07T01:28:38;100375.69;;;24.25;11.23
37858;BME280;23695;55.868;37.472;2022-12-07T01:31:11;100371.34;;;24.24;10.70
37858;BME280;23695;55.868;37.472;2022-12-07T01:33:39;100371.75;;;24.22;10.89
37858;BME280;23695;55.868;37.472;2022-12-07T01:36:30;100369.00;;;24.22;11.04
37858;BME280;23695;55.868;37.472;2022-12-07T01:38:59;100370.19;;;24.21;11.09
37858;BME280;23695;55.868;37.472;2022-12-07T01:41:32;100363.88;;;24.21;10.75
37858;BME280;23695;55.868;37.472;2022-12-07T01:44:25;100365.81;;;24.20;10.68
37858;BME280;23695;55.868;37.472;2022-12-07T01:46:55;100365.81;;;24.20;10.85
37858;BME280;23695;55.868;37.472;2022-12-07T01:51:49;100358.72;;;24.19;11.16
37858;BME280;23695;55.868;37.472;2022-12-07T01:54:18;100362.28;;;24.20;10.80
37858;BME280;23695;55.868;37.472;2022-12-07T01:56:52;100361.13;;;24.21;10.88
37858;BME280;23695;55.868;37.472;2022-12-07T01:59:21;100357.16;;;24.22;10.70
37858;BME280;23695;55.868;37.472;2022-12-07T02:01:50;100350.06;;;24.21;10.82
37858;BME280;23695;55.868;37.472;2022-12-07T02:04:18;100349.69;;;24.22;10.81
37858;BME280;23695;55.868;37.472;2022-12-07T02:06:45;100341.41;;;24.22;10.83
37858;BME280;23695;55.868;37.472;2022-12-07T02:09:13;100345.34;;;24.21;10.90
37858;BME280;23695;55.868;37.472;2022-12-07T02:11:40;100349.69;;;24.22;11.01
37858;BME280;23695;55.868;37.472;2022-12-07T02:14:07;100362.28;;;24.23;10.70
37858;BME280;23695;55.868;37.472;2022-12-07T02:16:43;100354.78;;;24.24;10.90
37858;BME280;23695;55.868;37.472;2022-12-07T02:27:50;100344.53;;;24.24;11.21
37858;BME280;23695;55.868;37.472;2022-12-07T02:30:22;100340.59;;;24.25;10.85
37858;BME280;23695;55.868;37.472;2022-12-07T02:33:22;100339.41;;;24.26;11.24
37858;BME280;23695;55.868;37.472;2022-12-07T02:38:34;100339.41;;;24.26;11.00
37858;BME280;23695;55.868;37.472;2022-12-07T02:41:10;100337.44;;;24.27;10.95
37858;BME280;23695;55.868;37.472;2022-12-07T02:43:48;100342.94;;;24.27;10.90
37858;BME280;23695;55.868;37.472;2022-12-07T02:46:22;100340.97;;;24.27;11.29
37858;BME280;23695;55.868;37.472;2022-12-07T02:48:51;100336.66;;;24.26;11.10
37858;BME280;23695;55.868;37.472;2022-12-07T02:51:19;100342.16;;;24.26;10.95
37858;BME280;23695;55.868;37.472;2022-12-07T02:53:45;100348.06;;;24.28;10.91
37858;BME280;23695;55.868;37.472;2022-12-07T02:56:25;100348.06;;;24.28;11.26
37858;BME280;23695;55.868;37.472;2022-12-07T03:05:02;100341.41;;;24.29;10.96
37858;BME280;23695;55.868;37.472;2022-12-07T03:11:09;100344.16;;;24.29;11.22
37858;BME280;23695;55.868;37.472;2022-12-07T03:13:56;100341.41;;;24.29;11.26
37858;BME280;23695;55.868;37.472;2022-12-07T03:17:07;100343.75;;;24.31;11.08
37858;BME280;23695;55.868;37.472;2022-12-07T03:19:36;100340.22;;;24.30;10.69
37858;BME280;23695;55.868;37.472;2022-12-07T03:22:10;100340.63;;;24.33;10.69
37858;BME280;23695;55.868;37.472;2022-12-07T03:24:49;100345.75;;;24.34;10.66
37858;BME280;23695;55.868;37.472;2022-12-07T03:27:22;100336.69;;;24.34;10.88
37858;BME280;23695;55.868;37.472;2022-12-07T03:30:17;100332.72;;;24.35;10.79
37858;BME280;23695;55.868;37.472;2022-12-07T03:32:53;100340.59;;;24.36;10.58
37858;BME280;23695;55.868;37.472;2022-12-07T03:35:45;100335.47;;;24.38;10.97
37858;BME280;23695;55.868;37.472;2022-12-07T03:38:20;100333.53;;;24.39;11.18
37858;BME280;23695;55.868;37.472;2022-12-07T03:40:58;100325.63;;;24.41;11.14
37858;BME280;23695;55.868;37.472;2022-12-07T03:43:29;100333.50;;;24.42;11.12
37858;BME280;23695;55.868;37.472;2022-12-07T03:46:07;100324.81;;;24.44;11.04
37858;BME280;23695;55.868;37.472;2022-12-07T03:54:44;100320.09;;;24.44;11.00
37858;BME280;23695;55.868;37.472;2022-12-07T03:57:14;100319.28;;;24.44;10.65
37858;BME280;23695;55.868;37.472;2022-12-07T03:59:42;100326.78;;;24.43;10.61
37858;BME280;23695;55.868;37.472;2022-12-07T04:02:11;100328.38;;;24.44;10.87
37858;BME280;23695;55.868;37.472;2022-12-07T04:04:41;100323.63;;;24.45;10.80
37858;BME280;23695;55.868;37.472;2022-12-07T04:07:10;100316.53;;;24.44;10.47
37858;BME280;23695;55.868;37.472;2022-12-07T04:09:37;100311.81;;;24.44;10.36
37858;BME280;23695;55.868;37.472;2022-12-07T04:12:05;100315.34;;;24.45;10.46
37858;BME280;23695;55.868;37.472;2022-12-07T04:14:32;100316.91;;;24.46;10.67
37858;BME280;23695;55.868;37.472;2022-12-07T04:17:00;100315.72;;;24.47;10.17
37858;BME280;23695;55.868;37.472;2022-12-07T04:19:31;100312.97;;;24.47;10.54
37858;BME280;23695;55.868;37.472;2022-12-07T04:22:00;100311.03;;;24.47;10.28
37858;BME280;23695;55.868;37.472;2022-12-07T04:24:27;100311.81;;;24.48;10.20
37858;BME280;23695;55.868;37.472;2022-12-07T04:26:55;100307.84;;;24.49;10.20
37858;BME280;23695;55.868;37.472;2022-12-07T04:29:22;100305.47;;;24.51;10.35
37858;BME280;23695;55.868;37.472;2022-12-07T04:31:49;100311.38;;;24.53;10.55
37858;BME280;23695;55.868;37.472;2022-12-07T04:34:17;100304.69;;;24.54;10.25
37858;BME280;23695;55.868;37.472;2022-12-07T04:36:44;100315.31;;;24.55;10.63
37858;BME280;23695;55.868;37.472;2022-12-07T04:41:45;100305.47;;;24.54;10.33
37858;BME280;23695;55.868;37.472;2022-12-07T04:44:12;100310.19;;;24.54;10.21
37858;BME280;23695;55.868;37.472;2022-12-07T04:46:40;100308.22;;;24.54;10.42
37858;BME280;23695;55.868;37.472;2022-12-07T04:49:07;100310.59;;;24.56;9.98
37858;BME280;23695;55.868;37.472;2022-12-07T04:51:34;100304.69;;;24.57;10.13
37858;BME280;23695;55.868;37.472;2022-12-07T04:54:01;100303.13;;;24.56;10.00
37858;BME280;23695;55.868;37.472;2022-12-07T04:56:28;100308.22;;;24.54;10.09
37858;BME280;23695;55.868;37.472;2022-12-07T04:58:55;100304.69;;;24.50;10.16
37858;BME280;23695;55.868;37.472;2022-12-07T05:01:23;100303.13;;;24.46;9.67
37858;BME280;23695;55.868;37.472;2022-12-07T05:03:50;100309.84;;;24.41;9.96
37858;BME280;23695;55.868;37.472;2022-12-07T05:06:17;100311.44;;;24.35;9.62
37858;BME280;23695;55.868;37.472;2022-12-07T05:08:44;100307.88;;;24.31;9.54
37858;BME280;23695;55.868;37.472;2022-12-07T05:11:12;100307.84;;;24.27;9.80
37858;BME280;23695;55.868;37.472;2022-12-07T05:13:39;100311.03;;;24.22;9.61
37858;BME280;23695;55.868;37.472;2022-12-07T05:16:05;100308.28;;;24.19;9.68
37858;BME280;23695;55.868;37.472;2022-12-07T05:18:32;100316.16;;;24.17;9.28
37858;BME280;23695;55.868;37.472;2022-12-07T05:20:59;100316.97;;;24.14;9.39
37858;BME280;23695;55.868;37.472;2022-12-07T05:23:26;100309.47;;;24.11;9.25
37858;BME280;23695;55.868;37.472;2022-12-07T05:25:52;100310.25;;;24.08;9.29
37858;BME280;23695;55.868;37.472;2022-12-07T05:28:19;100311.44;;;24.07;9.68
37858;BME280;23695;55.868;37.472;2022-12-07T05:30:46;100302.00;;;24.04;9.24
37858;BME280;23695;55.868;37.472;2022-12-07T05:33:12;100310.66;;;24.02;9.54
37858;BME280;23695;55.868;37.472;2022-12-07T05:35:39;100305.16;;;23.99;9.35
37858;BME280;23695;55.868;37.472;2022-12-07T05:38:06;100299.25;;;23.97;9.24
37858;BME280;23695;55.868;37.472;2022-12-07T05:40:33;100312.25;;;23.96;9.30
37858;BME280;23695;55.868;37.472;2022-12-07T05:42:59;100308.28;;;23.94;9.71
37858;BME280;23695;55.868;37.472;2022-12-07T05:45:30;100302.00;;;23.93;9.62
37858;BME280;23695;55.868;37.472;2022-12-07T05:47:57;100307.91;;;23.92;9.42
37858;BME280;23695;55.868;37.472;2022-12-07T05:50:24;100304.75;;;23.90;9.63
37858;BME280;23695;55.868;37.472;2022-12-07T05:52:51;100294.13;;;23.88;9.37
37858;BME280;23695;55.868;37.472;2022-12-07T05:55:17;100300.03;;;23.87;9.23
37858;BME280;23695;55.868;37.472;2022-12-07T05:57:44;100298.06;;;23.87;9.44
37858;BME280;23695;55.868;37.472;2022-12-07T06:00:11;100295.72;;;23.86;9.19
37858;BME280;23695;55.868;37.472;2022-12-07T06:02:38;100300.41;;;23.85;9.26
37858;BME280;23695;55.868;37.472;2022-12-07T06:05:06;100293.31;;;23.84;9.37
37858;BME280;23695;55.868;37.472;2022-12-07T06:07:32;100294.91;;;23.82;9.27
37858;BME280;23695;55.868;37.472;2022-12-07T06:09:59;100296.88;;;23.81;9.29
37858;BME280;23695;55.868;37.472;2022-12-07T06:12:26;100307.13;;;23.81;9.29
37858;BME280;23695;55.868;37.472;2022-12-07T06:14:53;100297.28;;;23.80;9.38
37858;BME280;23695;55.868;37.472;2022-12-07T06:17:20;100300.03;;;23.80;9.56
37858;BME280;23695;55.868;37.472;2022-12-07T06:19:47;100295.72;;;23.79;9.46
37858;BME280;23695;55.868;37.472;2022-12-07T06:22:14;100298.88;;;23.77;9.50
37858;BME280;23695;55.868;37.472;2022-12-07T06:24:40;100293.72;;;23.76;9.40
37858;BME280;23695;55.868;37.472;2022-12-07T06:27:07;100294.91;;;23.74;9.50
37858;BME280;23695;55.868;37.472;2022-12-07T06:29:34;100292.53;;;23.73;9.52
37858;BME280;23695;55.868;37.472;2022-12-07T06:32:01;100294.50;;;23.72;9.31
37858;BME280;23695;55.868;37.472;2022-12-07T06:34:27;100294.91;;;23.71;9.28
37858;BME280;23695;55.868;37.472;2022-12-07T06:36:54;100295.69;;;23.71;9.51
37858;BME280;23695;55.868;37.472;2022-12-07T06:39:26;100283.09;;;23.70;9.40
37858;BME280;23695;55.868;37.472;2022-12-07T06:41:53;100293.75;;;23.68;9.34
37858;BME280;23695;55.868;37.472;2022-12-07T06:44:21;100293.75;;;23.68;9.46
37858;BME280;23695;55.868;37.472;2022-12-07T06:46:49;100287.44;;;23.68;9.19
37858;BME280;23695;55.868;37.472;2022-12-07T06:49:16;100298.47;;;23.68;9.26
37858;BME280;23695;55.868;37.472;2022-12-07T06:51:43;100294.09;;;23.67;9.44
37858;BME280;23695;55.868;37.472;2022-12-07T06:54:12;100294.50;;;23.65;9.53
37858;BME280;23695;55.868;37.472;2022-12-07T06:56:39;100291.75;;;23.65;9.42
37858;BME280;23695;55.868;37.472;2022-12-07T06:59:07;100295.69;;;23.64;9.26
37858;BME280;23695;55.868;37.472;2022-12-07T07:01:34;100294.13;;;23.63;9.38
37858;BME280;23695;55.868;37.472;2022-12-07T07:04:02;100292.53;;;23.62;9.20
37858;BME280;23695;55.868;37.472;2022-12-07T07:06:29;100290.97;;;23.61;9.27
37858;BME280;23695;55.868;37.472;2022-12-07T07:08:56;100291.38;;;23.60;9.38
37858;BME280;23695;55.868;37.472;2022-12-07T07:11:23;100294.13;;;23.60;9.41
37858;BME280;23695;55.868;37.472;2022-12-07T07:13:49;100294.47;;;23.58;9.55
37858;BME280;23695;55.868;37.472;2022-12-07T07:16:16;100301.16;;;23.57;9.28
37858;BME280;23695;55.868;37.472;2022-12-07T07:18:43;100298.41;;;23.57;9.35
37858;BME280;23695;55.868;37.472;2022-12-07T07:21:09;100296.84;;;23.56;9.54
37858;BME280;23695;55.868;37.472;2022-12-07T07:23:36;100299.97;;;23.55;9.47
37858;BME280;23695;55.868;37.472;2022-12-07T07:26:03;100297.22;;;23.55;9.30
37858;BME280;23695;55.868;37.472;2022-12-07T07:28:30;100297.63;;;23.53;9.30
37858;BME280;23695;55.868;37.472;2022-12-07T07:30:56;100296.84;;;23.53;9.32
37858;BME280;23695;55.868;37.472;2022-12-07T07:33:23;100287.78;;;23.52;9.36
37858;BME280;23695;55.868;37.472;2022-12-07T07:35:50;100289.75;;;23.52;9.36
37858;BME280;23695;55.868;37.472;2022-12-07T07:38:17;100281.88;;;23.50;9.49
37858;BME280;23695;55.868;37.472;2022-12-07T07:40:43;100286.56;;;23.50;9.62
37858;BME280;23695;55.868;37.472;2022-12-07T07:43:10;100278.31;;;23.50;9.28
37858;BME280;23695;55.868;37.472;2022-12-07T07:45:37;100281.47;;;23.48;9.42
37858;BME280;23695;55.868;37.472;2022-12-07T07:48:04;100278.72;;;23.48;9.64
37858;BME280;23695;55.868;37.472;2022-12-07T07:50:31;100268.47;;;23.49;9.69
37858;BME280;23695;55.868;37.472;2022-12-07T07:52:58;100269.66;;;23.48;9.68
37858;BME280;23695;55.868;37.472;2022-12-07T07:55:24;100266.91;;;23.48;9.54
37858;BME280;23695;55.868;37.472;2022-12-07T07:57:51;100266.09;;;23.47;9.62
37858;BME280;23695;55.868;37.472;2022-12-07T08:00:21;100271.63;;;23.47;9.44
37858;BME280;23695;55.868;37.472;2022-12-07T08:02:48;100268.88;;;23.47;9.56
37858;BME280;23695;55.868;37.472;2022-12-07T08:05:15;100269.25;;;23.45;9.34
37858;BME280;23695;55.868;37.472;2022-12-07T08:07:42;100271.22;;;23.45;9.48
37858;BME280;23695;55.868;37.472;2022-12-07T08:10:10;100270.84;;;23.46;9.75
37858;BME280;23695;55.868;37.472;2022-12-07T08:12:39;100262.97;;;23.45;9.46
37858;BME280;23695;55.868;37.472;2022-12-07T08:15:06;100262.19;;;23.44;9.49
37858;BME280;23695;55.868;37.472;2022-12-07T08:17:33;100261.41;;;23.44;9.38
37858;BME280;23695;55.868;37.472;2022-12-07T08:19:59;100259.81;;;23.43;9.71
37858;BME280;23695;55.868;37.472;2022-12-07T08:22:27;100259.03;;;23.42;9.46
37858;BME280;23695;55.868;37.472;2022-12-07T08:24:53;100260.59;;;23.43;9.68
37858;BME280;23695;55.868;37.472;2022-12-07T08:27:20;100251.56;;;23.43;9.64
37858;BME280;23695;55.868;37.472;2022-12-07T08:29:47;100266.50;;;23.42;9.61
37858;BME280;23695;55.868;37.472;2022-12-07T08:32:13;100258.25;;;23.42;9.63
37858;BME280;23695;55.868;37.472;2022-12-07T08:34:40;100261.78;;;23.42;9.70
37858;BME280;23695;55.868;37.472;2022-12-07T08:37:07;100256.28;;;23.42;9.77
37858;BME280;23695;55.868;37.472;2022-12-07T08:39:33;100249.97;;;23.42;9.67
37858;BME280;23695;55.868;37.472;2022-12-07T08:42:00;100252.72;;;23.42;9.34
37858;BME280;23695;55.868;37.472;2022-12-07T08:44:27;100255.50;;;23.42;9.33
37858;BME280;23695;55.868;37.472;2022-12-07T08:46:58;100249.97;;;23.42;9.44
37858;BME280;23695;55.868;37.472;2022-12-07T08:49:36;100248.38;;;23.41;9.31
37858;BME280;23695;55.868;37.472;2022-12-07T08:52:05;100245.63;;;23.37;9.74
37858;BME280;23695;55.868;37.472;2022-12-07T08:54:35;100238.94;;;23.38;9.78
37858;BME280;23695;55.868;37.472;2022-12-07T08:57:03;100240.13;;;23.37;9.41
37858;BME280;23695;55.868;37.472;2022-12-07T08:59:31;100244.84;;;23.37;9.71
37858;BME280;23695;55.868;37.472;2022-12-07T09:01:59;100233.81;;;23.37;9.51
37858;BME280;23695;55.868;37.472;2022-12-07T09:04:26;100224.75;;;23.36;9.50
37858;BME280;23695;55.868;37.472;2022-12-07T09:06:54;100222.00;;;23.36;9.50
37858;BME280;23695;55.868;37.472;2022-12-07T09:09:21;100228.31;;;23.37;9.49
37858;BME280;23695;55.868;37.472;2022-12-07T09:11:48;100222.00;;;23.36;9.51
37858;BME280;23695;55.868;37.472;2022-12-07T09:14:14;100221.22;;;23.36;9.54
37858;BME280;23695;55.868;37.472;2022-12-07T09:16:41;100222.00;;;23.36;9.64
37858;BME280;23695;55.868;37.472;2022-12-07T09:19:08;100213.75;;;23.36;9.45
37858;BME280;23695;55.868;37.472;2022-12-07T09:21:34;100211.00;;;23.36;9.42
37858;BME280;23695;55.868;37.472;2022-12-07T09:24:01;100211.78;;;23.37;9.69
37858;BME280;23695;55.868;37.472;2022-12-07T09:26:28;100205.47;;;23.36;9.50
37858;BME280;23695;55.868;37.472;2022-12-07T09:28:55;100208.22;;;23.36;9.65
37858;BME280;23695;55.868;37.472;2022-12-07T09:31:21;100203.50;;;23.37;9.57
37858;BME280;23695;55.868;37.472;2022-12-07T09:33:58;100209.03;;;23.37;9.34
37858;BME280;23695;55.868;37.472;2022-12-07T09:36:26;100202.72;;;23.36;9.64
37858;BME280;23695;55.868;37.472;2022-12-07T09:38:53;100201.16;;;23.35;9.59
37858;BME280;23695;55.868;37.472;2022-12-07T09:41:22;100194.84;;;23.35;9.67
37858;BME280;23695;55.868;37.472;2022-12-07T09:43:50;100200.38;;;23.35;9.62
37858;BME280;23695;55.868;37.472;2022-12-07T09:46:19;100185.41;;;23.36;9.68
37858;BME280;23695;55.868;37.472;2022-12-07T09:48:47;100190.13;;;23.35;9.35
37858;BME280;23695;55.868;37.472;2022-12-07T09:51:23;100195.25;;;23.37;9.41
37858;BME280;23695;55.868;37.472;2022-12-07T09:53:53;100197.59;;;23.35;9.50
37858;BME280;23695;55.868;37.472;2022-12-07T09:56:21;100184.63;;;23.35;9.55
37858;BME280;23695;55.868;37.472;2022-12-07T09:58:49;100179.09;;;23.35;9.48
37858;BME280;23695;55.868;37.472;2022-12-07T10:01:20;100183.84;;;23.35;9.48
37858;BME280;23695;55.868;37.472;2022-12-07T10:04:09;100180.28;;;23.34;9.39
37858;BME280;23695;55.868;37.472;2022-12-07T10:06:37;100178.72;;;23.33;9.74
37858;BME280;23695;55.868;37.472;2022-12-07T10:09:15;100178.31;;;23.35;9.48
37858;BME280;23695;55.868;37.472;2022-12-07T10:12:18;100177.53;;;23.34;9.77
37858;BME280;23695;55.868;37.472;2022-12-07T10:14:57;100173.59;;;23.35;9.42
37858;BME280;23695;55.868;37.472;2022-12-07T10:17:41;100171.25;;;23.34;9.62
37858;BME280;23695;55.868;37.472;2022-12-07T10:20:24;100171.25;;;23.34;9.70
37858;BME280;23695;55.868;37.472;2022-12-07T10:23:05;100164.16;;;23.33;9.71
37858;BME280;23695;55.868;37.472;2022-12-07T10:25:39;100164.94;;;23.33;9.45
37858;BME280;23695;55.868;37.472;2022-12-07T10:36:21;100148.78;;;23.32;9.43
37858;BME280;23695;55.868;37.472;2022-12-07T10:41:31;100152.72;;;23.31;9.65
37858;BME280;23695;55.868;37.472;2022-12-07T10:43:58;100148.00;;;23.31;9.50
37858;BME280;23695;55.868;37.472;2022-12-07T10:46:49;100150.38;;;23.33;9.33
37858;BME280;23695;55.868;37.472;2022-12-07T10:58:03;100142.88;;;23.30;9.51
37858;BME280;23695;55.868;37.472;2022-12-07T11:01:00;100140.91;;;23.30;9.58
37858;BME280;23695;55.868;37.472;2022-12-07T11:06:09;100131.06;;;23.29;9.61
37858;BME280;23695;55.868;37.472;2022-12-07T11:08:56;100119.25;;;23.29;9.53
37858;BME280;23695;55.868;37.472;2022-12-07T11:11:43;100124.00;;;23.28;9.53
37858;BME280;23695;55.868;37.472;2022-12-07T11:14:26;100120.84;;;23.26;9.44
37858;BME280;23695;55.868;37.472;2022-12-07T11:16:56;100123.59;;;23.23;9.38
37858;BME280;23695;55.868;37.472;2022-12-07T11:19:45;100115.31;;;23.23;9.30
37858;BME280;23695;55.868;37.472;2022-12-07T11:30:08;100111.41;;;23.16;9.20
37858;BME280;23695;55.868;37.472;2022-12-07T11:35:40;100111.81;;;23.15;9.31
37858;BME280;23695;55.868;37.472;2022-12-07T11:38:18;100101.16;;;23.13;9.26
37858;BME280;23695;55.868;37.472;2022-12-07T11:40:58;100104.31;;;23.12;9.59
37858;BME280;23695;55.868;37.472;2022-12-07T11:43:31;100100.00;;;23.11;9.81
37858;BME280;23695;55.868;37.472;2022-12-07T11:46:14;100093.69;;;23.10;10.46
37858;BME280;23695;55.868;37.472;2022-12-07T11:48:49;100094.88;;;23.09;10.13
37858;BME280;23695;55.868;37.472;2022-12-07T11:51:20;100098.03;;;23.08;10.33
37858;BME280;23695;55.868;37.472;2022-12-07T11:54:10;100086.22;;;23.07;10.54
37858;BME280;23695;55.868;37.472;2022-12-07T11:56:38;100086.22;;;23.07;10.61
37858;BME280;23695;55.868;37.472;2022-12-07T11:59:32;100083.47;;;23.07;10.47
37858;BME280;23695;55.868;37.472;2022-12-07T12:02:15;100073.66;;;23.06;10.93
37858;BME280;23695;55.868;37.472;2022-12-07T12:08:22;100068.91;;;23.07;10.25
37858;BME280;23695;55.868;37.472;2022-12-07T12:20:00;100061.03;;;23.05;10.09
37858;BME280;23695;55.868;37.472;2022-12-07T12:22:45;100064.97;;;23.04;10.39
37858;BME280;23695;55.868;37.472;2022-12-07T12:25:52;100055.13;;;23.03;10.53
37858;BME280;23695;55.868;37.472;2022-12-07T12:28:49;100053.94;;;23.04;10.45
37858;BME280;23695;55.868;37.472;2022-12-07T12:33:51;100050.81;;;23.02;10.51
37858;BME280;23695;55.868;37.472;2022-12-07T12:36:23;100054.75;;;23.01;10.20
37858;BME280;23695;55.868;37.472;2022-12-07T12:39:11;100048.84;;;22.99;10.60
37858;BME280;23695;55.868;37.472;2022-12-07T12:44:41;100064.19;;;22.97;10.07
37858;BME280;23695;55.868;37.472;2022-12-07T12:47:40;100061.81;;;22.95;10.04
37858;BME280;23695;55.868;37.472;2022-12-07T12:53:03;100061.06;;;22.91;9.83
37858;BME280;23695;55.868;37.472;2022-12-07T12:55:46;100065.78;;;22.91;9.89
37858;BME280;23695;55.868;37.472;2022-12-07T13:00:47;100053.19;;;22.89;9.91
37858;BME280;23695;55.868;37.472;2022-12-07T13:03:40;100061.44;;;22.89;9.96
37858;BME280;23695;55.868;37.472;2022-12-07T13:08:52;100061.81;;;22.88;9.81
37858;BME280;23695;55.868;37.472;2022-12-07T13:11:31;100061.81;;;22.88;9.73
37858;BME280;23695;55.868;37.472;2022-12-07T13:17:03;100047.66;;;22.86;9.64
37858;BME280;23695;55.868;37.472;2022-12-07T13:25:11;100040.97;;;22.83;9.75
37858;BME280;23695;55.868;37.472;2022-12-07T13:27:41;100046.06;;;22.81;9.62
37858;BME280;23695;55.868;37.472;2022-12-07T13:30:19;100049.63;;;22.82;9.76
37858;BME280;23695;55.868;37.472;2022-12-07T13:32:58;100048.03;;;22.81;9.65
37858;BME280;23695;55.868;37.472;2022-12-07T13:38:02;100040.19;;;22.79;9.58
37858;BME280;23695;55.868;37.472;2022-12-07T13:40:30;100040.56;;;22.78;9.51
37858;BME280;23695;55.868;37.472;2022-12-07T13:43:03;100038.59;;;22.78;9.62
37858;BME280;23695;55.868;37.472;2022-12-07T13:45:32;100033.47;;;22.77;9.76
37858;BME280;23695;55.868;37.472;2022-12-07T13:48:00;100044.47;;;22.77;9.70
37858;BME280;23695;55.868;37.472;2022-12-07T13:50:29;100035.44;;;22.76;9.72
37858;BME280;23695;55.868;37.472;2022-12-07T13:53:00;100046.84;;;22.75;9.43
37858;BME280;23695;55.868;37.472;2022-12-07T13:55:28;100044.09;;;22.75;10.39
37858;BME280;23695;55.868;37.472;2022-12-07T13:57:55;100035.44;;;22.76;10.58
37858;BME280;23695;55.868;37.472;2022-12-07T14:00:25;100042.94;;;22.79;10.25
37858;BME280;23695;55.868;37.472;2022-12-07T14:03:23;100034.66;;;22.83;10.30
37858;BME280;23695;55.868;37.472;2022-12-07T14:05:47;100034.28;;;22.84;10.20
37858;BME280;23695;55.868;37.472;2022-12-07T14:08:30;100039.78;;;22.88;10.26
37858;BME280;23695;55.868;37.472;2022-12-07T14:10:57;100041.00;;;22.91;10.44
37858;BME280;23695;55.868;37.472;2022-12-07T14:13:35;100034.28;;;22.92;10.22
37858;BME280;23695;55.868;37.472;2022-12-07T14:16:24;100044.13;;;22.96;10.34
37858;BME280;23695;55.868;37.472;2022-12-07T14:18:51;100036.63;;;22.97;10.21
37858;BME280;23695;55.868;37.472;2022-12-07T14:21:21;100037.84;;;22.99;10.30
37858;BME280;23695;55.868;37.472;2022-12-07T14:24:19;100032.72;;;23.01;10.16
37858;BME280;23695;55.868;37.472;2022-12-07T14:26:50;100031.53;;;23.02;10.27
37858;BME280;23695;55.868;37.472;2022-12-07T14:29:32;100030.72;;;23.05;10.08
37858;BME280;23695;55.868;37.472;2022-12-07T14:32:19;100030.72;;;23.05;10.48
37858;BME280;23695;55.868;37.472;2022-12-07T14:34:57;100037.06;;;23.06;10.47
37858;BME280;23695;55.868;37.472;2022-12-07T14:37:25;100034.31;;;23.06;10.22
37858;BME280;23695;55.868;37.472;2022-12-07T14:39:55;100023.28;;;23.06;10.11
37858;BME280;23695;55.868;37.472;2022-12-07T14:42:24;100020.91;;;23.08;10.24
37858;BME280;23695;55.868;37.472;2022-12-07T14:44:53;100026.41;;;23.08;10.02
37858;BME280;23695;55.868;37.472;2022-12-07T14:47:20;100022.47;;;23.09;10.24
37858;BME280;23695;55.868;37.472;2022-12-07T14:50:08;100015.78;;;23.10;10.08